Terminal Aerodrome Forecast
Issued by NWS

Current Version | Previous Version | Text Only | Print | Product List | Glossary On
Versions: 1 2 3 4 5 6 7 8 9 10 11 12 13 14
000
FTUS46 KMTR 021720
TAFSNS
TAF
KSNS 021720Z 0218/0318 VRB03KT P6SM SKC
     FM021900 10012KT P6SM SKC
     FM022200 28006KT P6SM SKC
     FM030300 00000KT P6SM SKC
     FM030900 13008KT P6SM SKC=

USA.gov is the U.S. government's official web portal to all federal, state and local government web resources and services.